sensor_id;sensor_type;location;lat;lon;timestamp;pressure;altitude;pressure_sealevel;temperature;humidity
55149;BME280;49539;48.160;11.530;2022-09-29T00:00:55;94424.97;;;7.84;100.00
55149;BME280;49539;48.160;11.530;2022-09-29T00:03:21;94431.47;;;7.86;100.00
55149;BME280;49539;48.160;11.530;2022-09-29T00:05:52;94437.19;;;7.88;100.00
55149;BME280;49539;48.160;11.530;2022-09-29T00:08:19;94436.91;;;7.86;100.00
55149;BME280;49539;48.160;11.530;2022-09-29T00:10:46;94434.59;;;7.85;100.00
55149;BME280;49539;48.160;11.530;2022-09-29T00:13:13;94436.13;;;7.86;100.00
55149;BME280;49539;48.160;11.530;2022-09-29T00:15:39;94427.44;;;7.91;100.00
55149;BME280;49539;48.160;11.530;2022-09-29T00:18:04;94423.66;;;7.88;100.00
55149;BME280;49539;48.160;11.530;2022-09-29T00:20:31;94432.75;;;7.94;100.00
55149;BME280;49539;48.160;11.530;2022-09-29T00:22:56;94434.38;;;7.92;100.00
55149;BME280;49539;48.160;11.530;2022-09-29T00:25:22;94430.59;;;7.89;100.00
55149;BME280;49539;48.160;11.530;2022-09-29T00:27:47;94433.00;;;7.87;100.00
55149;BME280;49539;48.160;11.530;2022-09-29T00:30:13;94438.41;;;7.87;100.00
55149;BME280;49539;48.160;11.530;2022-09-29T00:32:38;94431.34;;;7.90;100.00
55149;BME280;49539;48.160;11.530;2022-09-29T00:35:04;94429.72;;;7.92;100.00
55149;BME280;49539;48.160;11.530;2022-09-29T00:37:33;94423.31;;;7.99;100.00
55149;BME280;49539;48.160;11.530;2022-09-29T00:39:58;94423.41;;;7.95;100.00
55149;BME280;49539;48.160;11.530;2022-09-29T00:42:23;94418.00;;;7.95;100.00
55149;BME280;49539;48.160;11.530;2022-09-29T00:47:23;94410.91;;;7.98;100.00
55149;BME280;49539;48.160;11.530;2022-09-29T00:50:08;94405.94;;;7.96;100.00
55149;BME280;49539;48.160;11.530;2022-09-29T00:52:41;94400.84;;;7.99;100.00
55149;BME280;49539;48.160;11.530;2022-09-29T00:55:19;94403.56;;;7.99;100.00
55149;BME280;49539;48.160;11.530;2022-09-29T00:57:52;94394.91;;;7.91;100.00
55149;BME280;49539;48.160;11.530;2022-09-29T01:00:20;94395.44;;;7.86;100.00
55149;BME280;49539;48.160;11.530;2022-09-29T01:02:52;94386.81;;;7.78;100.00
55149;BME280;49539;48.160;11.530;2022-09-29T01:05:26;94376.41;;;7.77;100.00
55149;BME280;49539;48.160;11.530;2022-09-29T01:07:53;94384.78;;;7.69;100.00
55149;BME280;49539;48.160;11.530;2022-09-29T01:10:19;94385.22;;;7.68;100.00
55149;BME280;49539;48.160;11.530;2022-09-29T01:12:46;94391.59;;;7.74;100.00
55149;BME280;49539;48.160;11.530;2022-09-29T01:15:13;94396.28;;;7.74;100.00
55149;BME280;49539;48.160;11.530;2022-09-29T01:17:40;94397.25;;;7.67;100.00
55149;BME280;49539;48.160;11.530;2022-09-29T01:20:11;94390.06;;;7.73;100.00
55149;BME280;49539;48.160;11.530;2022-09-29T01:34:11;94398.22;;;7.73;100.00
55149;BME280;49539;48.160;11.530;2022-09-29T01:37:02;94389.97;;;7.77;100.00
55149;BME280;49539;48.160;11.530;2022-09-29T01:39:35;94389.31;;;7.72;100.00
55149;BME280;49539;48.160;11.530;2022-09-29T01:42:07;94390.84;;;7.74;100.00
55149;BME280;49539;48.160;11.530;2022-09-29T01:44:39;94390.63;;;7.68;100.00
55149;BME280;49539;48.160;11.530;2022-09-29T01:47:12;94390.97;;;7.70;100.00
55149;BME280;49539;48.160;11.530;2022-09-29T01:49:43;94386.50;;;7.76;100.00
55149;BME280;49539;48.160;11.530;2022-09-29T01:52:31;94382.56;;;7.77;100.00
55149;BME280;49539;48.160;11.530;2022-09-29T01:55:02;94381.94;;;7.73;100.00
55149;BME280;49539;48.160;11.530;2022-09-29T01:57:53;94382.38;;;7.71;100.00
55149;BME280;49539;48.160;11.530;2022-09-29T02:00:19;94383.91;;;7.72;100.00
55149;BME280;49539;48.160;11.530;2022-09-29T02:05:33;94387.94;;;7.68;100.00
55149;BME280;49539;48.160;11.530;2022-09-29T02:08:07;94395.00;;;7.65;100.00
55149;BME280;49539;48.160;11.530;2022-09-29T02:10:39;94384.78;;;7.69;100.00
55149;BME280;49539;48.160;11.530;2022-09-29T02:13:08;94382.56;;;7.77;100.00
55149;BME280;49539;48.160;11.530;2022-09-29T02:15:37;94383.91;;;7.72;100.00
55149;BME280;49539;48.160;11.530;2022-09-29T02:18:13;94380.00;;;7.74;100.00
55149;BME280;49539;48.160;11.530;2022-09-29T02:20:40;94380.78;;;7.74;100.00
55149;BME280;49539;48.160;11.530;2022-09-29T02:23:06;94381.94;;;7.73;100.00
55149;BME280;49539;48.160;11.530;2022-09-29T02:25:35;94373.00;;;7.85;100.00
55149;BME280;49539;48.160;11.530;2022-09-29T02:28:03;94379.63;;;7.84;100.00
55149;BME280;49539;48.160;11.530;2022-09-29T02:30:29;94371.94;;;7.83;100.00
55149;BME280;49539;48.160;11.530;2022-09-29T02:32:54;94381.53;;;7.75;100.00
55149;BME280;49539;48.160;11.530;2022-09-29T02:35:20;94383.78;;;7.76;100.00
55149;BME280;49539;48.160;11.530;2022-09-29T02:46:02;94397.41;;;7.85;100.00
55149;BME280;49539;48.160;11.530;2022-09-29T02:57:22;94377.94;;;7.78;100.00
55149;BME280;49539;48.160;11.530;2022-09-29T02:59:59;94372.94;;;7.76;100.00
55149;BME280;49539;48.160;11.530;2022-09-29T03:02:31;94379.75;;;7.81;100.00
55149;BME280;49539;48.160;11.530;2022-09-29T03:04:56;94383.78;;;7.76;100.00
55149;BME280;49539;48.160;11.530;2022-09-29T03:07:22;94378.38;;;7.76;100.00
55149;BME280;49539;48.160;11.530;2022-09-29T03:09:47;94369.72;;;7.68;100.00
55149;BME280;49539;48.160;11.530;2022-09-29T03:12:12;94370.91;;;7.67;100.00
55149;BME280;49539;48.160;11.530;2022-09-29T03:14:38;94374.50;;;7.64;100.00
55149;BME280;49539;48.160;11.530;2022-09-29T03:17:03;94374.06;;;7.66;100.00
55149;BME280;49539;48.160;11.530;2022-09-29T03:19:29;94376.34;;;7.67;100.00
55149;BME280;49539;48.160;11.530;2022-09-29T03:21:54;94367.13;;;7.65;100.00
55149;BME280;49539;48.160;11.530;2022-09-29T03:24:19;94364.28;;;7.68;100.00
55149;BME280;49539;48.160;11.530;2022-09-29T03:26:45;94368.97;;;7.68;100.00
55149;BME280;49539;48.160;11.530;2022-09-29T03:29:10;94370.47;;;7.69;100.00
55149;BME280;49539;48.160;11.530;2022-09-29T03:31:38;94368.09;;;7.71;100.00
55149;BME280;49539;48.160;11.530;2022-09-29T03:34:04;94365.69;;;7.73;100.00
55149;BME280;49539;48.160;11.530;2022-09-29T03:36:29;94378.94;;;7.71;100.00
55149;BME280;49539;48.160;11.530;2022-09-29T03:38:55;94372.06;;;7.79;100.00
55149;BME280;49539;48.160;11.530;2022-09-29T03:41:20;94355.47;;;7.77;100.00
55149;BME280;49539;48.160;11.530;2022-09-29T03:43:45;94351.78;;;7.84;100.00
55149;BME280;49539;48.160;11.530;2022-09-29T03:46:11;94346.22;;;7.87;100.00
55149;BME280;49539;48.160;11.530;2022-09-29T03:48:36;94346.03;;;7.82;100.00
55149;BME280;49539;48.160;11.530;2022-09-29T03:51:02;94356.25;;;7.78;100.00
55149;BME280;49539;48.160;11.530;2022-09-29T03:53:28;94361.47;;;7.72;100.00
55149;BME280;49539;48.160;11.530;2022-09-29T03:55:53;94362.22;;;7.72;100.00
55149;BME280;49539;48.160;11.530;2022-09-29T03:58:18;94369.28;;;7.70;100.00
55149;BME280;49539;48.160;11.530;2022-09-29T04:00:44;94361.22;;;7.79;100.00
55149;BME280;49539;48.160;11.530;2022-09-29T04:03:10;94375.09;;;7.81;100.00
55149;BME280;49539;48.160;11.530;2022-09-29T04:05:35;94381.53;;;7.75;100.00
55149;BME280;49539;48.160;11.530;2022-09-29T04:08:03;94375.97;;;7.78;100.00
55149;BME280;49539;48.160;11.530;2022-09-29T04:10:29;94377.72;;;7.72;100.00
55149;BME280;49539;48.160;11.530;2022-09-29T04:12:54;94363.59;;;7.77;100.00
55149;BME280;49539;48.160;11.530;2022-09-29T04:15:20;94365.44;;;7.80;100.00
55149;BME280;49539;48.160;11.530;2022-09-29T04:17:45;94370.22;;;7.76;100.00
55149;BME280;49539;48.160;11.530;2022-09-29T04:20:10;94365.13;;;7.78;100.00
55149;BME280;49539;48.160;11.530;2022-09-29T04:22:36;94364.38;;;7.78;100.00
55149;BME280;49539;48.160;11.530;2022-09-29T04:25:01;94368.34;;;7.86;100.00
55149;BME280;49539;48.160;11.530;2022-09-29T04:27:26;94383.66;;;7.80;100.00
55149;BME280;49539;48.160;11.530;2022-09-29T04:29:52;94376.06;;;7.87;100.00
55149;BME280;49539;48.160;11.530;2022-09-29T04:32:17;94364.63;;;7.92;100.00
55149;BME280;49539;48.160;11.530;2022-09-29T04:34:43;94362.50;;;7.87;100.00
55149;BME280;49539;48.160;11.530;2022-09-29T04:37:09;94362.31;;;7.82;100.00
55149;BME280;49539;48.160;11.530;2022-09-29T04:39:37;94366.72;;;7.88;100.00
55149;BME280;49539;48.160;11.530;2022-09-29T04:42:03;94376.34;;;7.89;100.00
55149;BME280;49539;48.160;11.530;2022-09-29T04:44:29;94389.84;;;7.80;100.00
55149;BME280;49539;48.160;11.530;2022-09-29T04:46:55;94380.91;;;7.92;100.00
55149;BME280;49539;48.160;11.530;2022-09-29T04:49:20;94375.19;;;7.90;100.00
55149;BME280;49539;48.160;11.530;2022-09-29T04:51:46;94375.66;;;7.98;100.00
55149;BME280;49539;48.160;11.530;2022-09-29T04:54:12;94368.50;;;7.82;100.00
55149;BME280;49539;48.160;11.530;2022-09-29T04:56:38;94366.66;;;7.79;100.00
55149;BME280;49539;48.160;11.530;2022-09-29T04:59:03;94362.06;;;7.89;100.00
55149;BME280;49539;48.160;11.530;2022-09-29T05:01:28;94359.22;;;7.92;100.00
55149;BME280;49539;48.160;11.530;2022-09-29T05:03:54;94357.19;;;7.84;100.00
55149;BME280;49539;48.160;11.530;2022-09-29T05:06:20;94351.66;;;7.87;100.00
55149;BME280;49539;48.160;11.530;2022-09-29T05:08:45;94350.06;;;7.77;100.00
55149;BME280;49539;48.160;11.530;2022-09-29T05:11:10;94353.44;;;7.68;100.00
55149;BME280;49539;48.160;11.530;2022-09-29T05:13:36;94349.97;;;7.68;100.00
55149;BME280;49539;48.160;11.530;2022-09-29T05:16:02;94348.25;;;7.74;100.00
55149;BME280;49539;48.160;11.530;2022-09-29T05:18:28;94352.84;;;7.86;100.00
55149;BME280;49539;48.160;11.530;2022-09-29T05:20:54;94353.41;;;7.81;100.00
55149;BME280;49539;48.160;11.530;2022-09-29T05:23:20;94350.06;;;7.77;100.00
55149;BME280;49539;48.160;11.530;2022-09-29T05:25:46;94352.13;;;7.73;100.00
55149;BME280;49539;48.160;11.530;2022-09-29T05:28:12;94363.75;;;7.74;100.00
55149;BME280;49539;48.160;11.530;2022-09-29T05:30:39;94366.56;;;7.70;100.00
55149;BME280;49539;48.160;11.530;2022-09-29T05:33:04;94358.13;;;7.68;100.00
55149;BME280;49539;48.160;11.530;2022-09-29T05:35:30;94353.16;;;7.66;100.00
55149;BME280;49539;48.160;11.530;2022-09-29T05:37:55;94335.78;;;7.64;100.00
55149;BME280;49539;48.160;11.530;2022-09-29T05:40:20;94331.59;;;7.63;100.00
55149;BME280;49539;48.160;11.530;2022-09-29T05:42:49;94331.59;;;7.63;100.00
55149;BME280;49539;48.160;11.530;2022-09-29T05:45:15;94338.56;;;7.73;100.00
55149;BME280;49539;48.160;11.530;2022-09-29T05:47:41;94335.22;;;7.69;100.00
55149;BME280;49539;48.160;11.530;2022-09-29T05:50:08;94339.84;;;7.81;100.00
55149;BME280;49539;48.160;11.530;2022-09-29T05:52:34;94342.50;;;7.94;100.00
55149;BME280;49539;48.160;11.530;2022-09-29T05:54:59;94347.56;;;8.05;100.00
55149;BME280;49539;48.160;11.530;2022-09-29T05:57:25;94352.47;;;7.97;100.00
55149;BME280;49539;48.160;11.530;2022-09-29T05:59:50;94345.09;;;7.97;100.00
55149;BME280;49539;48.160;11.530;2022-09-29T06:02:16;94341.13;;;7.89;100.00
55149;BME280;49539;48.160;11.530;2022-09-29T06:04:43;94345.84;;;7.98;100.00
55149;BME280;49539;48.160;11.530;2022-09-29T06:07:08;94345.94;;;8.07;100.00
55149;BME280;49539;48.160;11.530;2022-09-29T06:09:34;94343.75;;;8.02;100.00
55149;BME280;49539;48.160;11.530;2022-09-29T06:12:01;94338.22;;;8.06;100.00
55149;BME280;49539;48.160;11.530;2022-09-29T06:14:26;94334.63;;;8.09;100.00
55149;BME280;49539;48.160;11.530;2022-09-29T06:16:51;94344.47;;;8.15;100.00
55149;BME280;49539;48.160;11.530;2022-09-29T06:19:17;94340.94;;;8.28;100.00
55149;BME280;49539;48.160;11.530;2022-09-29T06:21:43;94347.41;;;8.30;100.00
55149;BME280;49539;48.160;11.530;2022-09-29T06:24:08;94343.19;;;8.29;100.00
55149;BME280;49539;48.160;11.530;2022-09-29T06:26:34;94348.63;;;8.29;100.00
55149;BME280;49539;48.160;11.530;2022-09-29T06:29:00;94337.41;;;8.40;100.00
55149;BME280;49539;48.160;11.530;2022-09-29T06:31:27;94337.75;;;8.51;100.00
55149;BME280;49539;48.160;11.530;2022-09-29T06:34:01;94333.09;;;8.52;100.00
55149;BME280;49539;48.160;11.530;2022-09-29T06:36:41;94328.16;;;8.59;100.00
55149;BME280;49539;48.160;11.530;2022-09-29T06:39:26;94328.34;;;8.65;100.00
55149;BME280;49539;48.160;11.530;2022-09-29T06:41:51;94331.81;;;8.65;100.00
55149;BME280;49539;48.160;11.530;2022-09-29T06:44:26;94342.22;;;8.67;100.00
55149;BME280;49539;48.160;11.530;2022-09-29T06:46:54;94340.72;;;8.66;100.00
55149;BME280;49539;48.160;11.530;2022-09-29T06:49:20;94349.16;;;8.68;100.00
55149;BME280;49539;48.160;11.530;2022-09-29T06:51:45;94352.25;;;8.88;100.00
55149;BME280;49539;48.160;11.530;2022-09-29T06:54:12;94356.94;;;8.88;100.00
55149;BME280;49539;48.160;11.530;2022-09-29T06:56:38;94354.69;;;8.95;100.00
55149;BME280;49539;48.160;11.530;2022-09-29T06:59:04;94359.84;;;8.93;100.00
55149;BME280;49539;48.160;11.530;2022-09-29T07:01:29;94354.44;;;9.03;100.00
55149;BME280;49539;48.160;11.530;2022-09-29T07:03:55;94365.09;;;8.88;100.00
55149;BME280;49539;48.160;11.530;2022-09-29T07:06:21;94359.38;;;8.95;100.00
55149;BME280;49539;48.160;11.530;2022-09-29T07:08:46;94354.72;;;9.05;100.00
55149;BME280;49539;48.160;11.530;2022-09-29T07:11:12;94354.16;;;9.10;100.00
55149;BME280;49539;48.160;11.530;2022-09-29T07:13:37;94352.69;;;9.18;100.00
55149;BME280;49539;48.160;11.530;2022-09-29T07:16:08;94359.03;;;9.24;100.00
55149;BME280;49539;48.160;11.530;2022-09-29T07:18:35;94359.34;;;9.26;100.00
55149;BME280;49539;48.160;11.530;2022-09-29T07:21:06;94359.34;;;9.26;100.00
55149;BME280;49539;48.160;11.530;2022-09-29T07:23:32;94349.97;;;9.27;100.00
55149;BME280;49539;48.160;11.530;2022-09-29T07:25:57;94343.19;;;9.23;100.00
55149;BME280;49539;48.160;11.530;2022-09-29T07:28:23;94337.03;;;9.40;100.00
55149;BME280;49539;48.160;11.530;2022-09-29T07:31:03;94344.28;;;9.43;100.00
55149;BME280;49539;48.160;11.530;2022-09-29T07:33:30;94350.63;;;9.50;100.00
55149;BME280;49539;48.160;11.530;2022-09-29T07:35:55;94354.25;;;9.47;100.00
55149;BME280;49539;48.160;11.530;2022-09-29T07:38:22;94352.44;;;9.43;100.00
55149;BME280;49539;48.160;11.530;2022-09-29T07:40:47;94350.31;;;9.48;100.00
55149;BME280;49539;48.160;11.530;2022-09-29T07:43:13;94345.94;;;9.41;100.00
55149;BME280;49539;48.160;11.530;2022-09-29T07:45:46;94345.66;;;9.66;100.00
55149;BME280;49539;48.160;11.530;2022-09-29T07:48:11;94347.19;;;9.77;100.00
55149;BME280;49539;48.160;11.530;2022-09-29T07:50:37;94353.84;;;9.85;100.00
55149;BME280;49539;48.160;11.530;2022-09-29T07:53:02;94355.19;;;9.89;100.00
55149;BME280;49539;48.160;11.530;2022-09-29T07:55:28;94345.19;;;9.95;100.00
55149;BME280;49539;48.160;11.530;2022-09-29T07:57:53;94337.81;;;9.96;100.00
55149;BME280;49539;48.160;11.530;2022-09-29T08:00:18;94352.75;;;9.91;100.00
55149;BME280;49539;48.160;11.530;2022-09-29T08:02:44;94338.88;;;9.99;100.00
55149;BME280;49539;48.160;11.530;2022-09-29T08:05:10;94346.25;;;10.07;100.00
55149;BME280;49539;48.160;11.530;2022-09-29T08:07:36;94350.66;;;10.05;100.00
55149;BME280;49539;48.160;11.530;2022-09-29T08:10:01;94354.56;;;10.04;100.00
55149;BME280;49539;48.160;11.530;2022-09-29T08:12:27;94354.44;;;9.98;100.00
55149;BME280;49539;48.160;11.530;2022-09-29T08:14:52;94355.78;;;10.03;100.00
55149;BME280;49539;48.160;11.530;2022-09-29T08:17:20;94347.31;;;10.10;100.00
55149;BME280;49539;48.160;11.530;2022-09-29T08:19:45;94361.84;;;10.07;100.00
55149;BME280;49539;48.160;11.530;2022-09-29T08:22:10;94357.59;;;10.15;100.00
55149;BME280;49539;48.160;11.530;2022-09-29T08:24:36;94360.63;;;10.35;100.00
55149;BME280;49539;48.160;11.530;2022-09-29T08:27:04;94366.97;;;10.51;100.00
55149;BME280;49539;48.160;11.530;2022-09-29T08:29:34;94370.59;;;10.38;100.00
55149;BME280;49539;48.160;11.530;2022-09-29T08:31:59;94361.53;;;10.41;100.00
55149;BME280;49539;48.160;11.530;2022-09-29T08:34:25;94373.91;;;10.52;100.00
55149;BME280;49539;48.160;11.530;2022-09-29T08:36:50;94370.44;;;10.51;100.00
55149;BME280;49539;48.160;11.530;2022-09-29T08:39:16;94379.50;;;10.48;100.00
55149;BME280;49539;48.160;11.530;2022-09-29T08:49:46;94379.34;;;10.24;100.00
55149;BME280;49539;48.160;11.530;2022-09-29T08:52:18;94383.28;;;10.23;100.00
55149;BME280;49539;48.160;11.530;2022-09-29T08:54:46;94383.16;;;10.27;100.00
55149;BME280;49539;48.160;11.530;2022-09-29T08:57:14;94378.91;;;10.44;100.00
55149;BME280;49539;48.160;11.530;2022-09-29T08:59:47;94385.69;;;10.49;100.00
55149;BME280;49539;48.160;11.530;2022-09-29T09:02:44;94377.25;;;10.28;100.00
55149;BME280;49539;48.160;11.530;2022-09-29T09:05:31;94384.78;;;10.24;100.00
55149;BME280;49539;48.160;11.530;2022-09-29T09:19:56;94388.75;;;10.32;100.00
55149;BME280;49539;48.160;11.530;2022-09-29T09:22:32;94393.13;;;10.21;100.00
55149;BME280;49539;48.160;11.530;2022-09-29T09:25:27;94409.63;;;10.17;100.00
55149;BME280;49539;48.160;11.530;2022-09-29T09:28:03;94402.94;;;10.00;100.00
55149;BME280;49539;48.160;11.530;2022-09-29T09:30:38;94415.63;;;10.12;100.00
55149;BME280;49539;48.160;11.530;2022-09-29T09:33:31;94416.41;;;10.12;100.00
55149;BME280;49539;48.160;11.530;2022-09-29T09:36:11;94411.69;;;10.04;100.00
55149;BME280;49539;48.160;11.530;2022-09-29T09:38:51;94414.28;;;9.98;100.00
55149;BME280;49539;48.160;11.530;2022-09-29T09:41:21;94405.06;;;10.05;100.00
55149;BME280;49539;48.160;11.530;2022-09-29T09:43:55;94400.06;;;10.03;100.00
55149;BME280;49539;48.160;11.530;2022-09-29T09:46:29;94401.88;;;10.06;100.00
55149;BME280;49539;48.160;11.530;2022-09-29T09:54:19;94409.63;;;10.35;100.00
55149;BME280;49539;48.160;11.530;2022-09-29T10:02:15;94416.41;;;10.22;100.00
55149;BME280;49539;48.160;11.530;2022-09-29T10:04:41;94415.06;;;10.26;100.00
55149;BME280;49539;48.160;11.530;2022-09-29T10:07:06;94412.47;;;10.13;100.00
55149;BME280;49539;48.160;11.530;2022-09-29T10:09:31;94412.03;;;10.06;100.00
55149;BME280;49539;48.160;11.530;2022-09-29T10:11:57;94415.06;;;10.26;100.00
55149;BME280;49539;48.160;11.530;2022-09-29T10:14:25;94422.94;;;10.33;100.00
55149;BME280;49539;48.160;11.530;2022-09-29T10:16:55;94413.69;;;10.49;100.00
55149;BME280;49539;48.160;11.530;2022-09-29T10:19:54;94421.84;;;10.22;100.00
55149;BME280;49539;48.160;11.530;2022-09-29T10:22:20;94417.44;;;10.24;100.00
55149;BME280;49539;48.160;11.530;2022-09-29T10:24:45;94414.72;;;10.24;100.00
55149;BME280;49539;48.160;11.530;2022-09-29T10:27:16;94415.66;;;10.21;100.00
55149;BME280;49539;48.160;11.530;2022-09-29T10:29:45;94418.69;;;10.32;100.00
55149;BME280;49539;48.160;11.530;2022-09-29T10:32:30;94414.91;;;10.21;100.00
55149;BME280;49539;48.160;11.530;2022-09-29T10:35:22;94418.97;;;10.16;100.00
55149;BME280;49539;48.160;11.530;2022-09-29T10:38:21;94415.06;;;10.26;100.00
55149;BME280;49539;48.160;11.530;2022-09-29T10:40:55;94415.06;;;10.26;100.00
55149;BME280;49539;48.160;11.530;2022-09-29T10:43:42;94417.94;;;10.32;100.00
55149;BME280;49539;48.160;11.530;2022-09-29T10:46:35;94422.94;;;10.42;100.00
55149;BME280;49539;48.160;11.530;2022-09-29T10:51:33;94422.78;;;10.37;100.00
55149;BME280;49539;48.160;11.530;2022-09-29T10:54:06;94425.66;;;10.42;100.00
55149;BME280;49539;48.160;11.530;2022-09-29T10:56:33;94423.22;;;10.35;100.00
55149;BME280;49539;48.160;11.530;2022-09-29T10:58:59;94419.16;;;10.31;100.00
55149;BME280;49539;48.160;11.530;2022-09-29T11:01:27;94414.00;;;10.42;100.00
55149;BME280;49539;48.160;11.530;2022-09-29T11:03:57;94423.53;;;10.47;100.00
55149;BME280;49539;48.160;11.530;2022-09-29T11:06:35;94424.72;;;10.55;100.00
55149;BME280;49539;48.160;11.530;2022-09-29T11:09:28;94423.66;;;10.52;100.00
55149;BME280;49539;48.160;11.530;2022-09-29T11:11:57;94423.50;;;10.74;100.00
55149;BME280;49539;48.160;11.530;2022-09-29T11:14:30;94438.25;;;11.01;100.00
55149;BME280;49539;48.160;11.530;2022-09-29T11:16:58;94436.78;;;10.90;100.00
55149;BME280;49539;48.160;11.530;2022-09-29T11:19:25;94426.22;;;10.74;100.00
55149;BME280;49539;48.160;11.530;2022-09-29T11:30:14;94429.63;;;11.35;100.00
55149;BME280;49539;48.160;11.530;2022-09-29T11:33:03;94439.13;;;11.16;100.00
55149;BME280;49539;48.160;11.530;2022-09-29T11:41:11;94440.84;;;10.95;100.00
55149;BME280;49539;48.160;11.530;2022-09-29T11:43:50;94442.69;;;10.80;100.00
55149;BME280;49539;48.160;11.530;2022-09-29T11:46:36;94445.09;;;10.78;100.00
55149;BME280;49539;48.160;11.530;2022-09-29T11:49:29;94451.94;;;10.73;100.00
55149;BME280;49539;48.160;11.530;2022-09-29T12:00:10;94451.00;;;10.85;100.00
55149;BME280;49539;48.160;11.530;2022-09-29T12:08:14;94452.66;;;10.92;100.00
55149;BME280;49539;48.160;11.530;2022-09-29T12:10:55;94448.59;;;10.87;100.00
55149;BME280;49539;48.160;11.530;2022-09-29T12:16:31;94448.16;;;10.80;100.00
55149;BME280;49539;48.160;11.530;2022-09-29T12:19:03;94455.69;;;10.85;100.00
55149;BME280;49539;48.160;11.530;2022-09-29T12:21:33;94461.28;;;11.00;100.00
55149;BME280;49539;48.160;11.530;2022-09-29T12:24:05;94460.78;;;11.10;100.00
55149;BME280;49539;48.160;11.530;2022-09-29T12:26:34;94461.81;;;11.22;100.00
55149;BME280;49539;48.160;11.530;2022-09-29T12:29:28;94461.09;;;11.12;100.00
55149;BME280;49539;48.160;11.530;2022-09-29T12:31:57;94455.91;;;11.14;100.00
55149;BME280;49539;48.160;11.530;2022-09-29T12:39:54;94454.72;;;11.15;100.00
55149;BME280;49539;48.160;11.530;2022-09-29T12:50:47;94444.41;;;11.10;100.00
55149;BME280;49539;48.160;11.530;2022-09-29T12:53:36;94444.81;;;11.27;100.00
55149;BME280;49539;48.160;11.530;2022-09-29T12:58:49;94442.28;;;11.57;100.00
55149;BME280;49539;48.160;11.530;2022-09-29T13:01:24;94458.97;;;11.50;100.00
55149;BME280;49539;48.160;11.530;2022-09-29T13:09:38;94450.94;;;11.13;100.00
55149;BME280;49539;48.160;11.530;2022-09-29T13:13:20;94449.72;;;11.14;100.00
55149;BME280;49539;48.160;11.530;2022-09-29T13:20:36;94447.09;;;10.86;100.00
55149;BME280;49539;48.160;11.530;2022-09-29T13:26:48;94459.16;;;11.04;100.00
55149;BME280;49539;48.160;11.530;2022-09-29T13:29:22;94469.47;;;10.90;100.00
55149;BME280;49539;48.160;11.530;2022-09-29T13:31:49;94471.56;;;10.96;100.00
55149;BME280;49539;48.160;11.530;2022-09-29T13:34:22;94471.16;;;10.79;100.00
55149;BME280;49539;48.160;11.530;2022-09-29T13:36:50;94474.31;;;10.68;100.00
55149;BME280;49539;48.160;11.530;2022-09-29T13:39:24;94482.81;;;10.70;100.00
55149;BME280;49539;48.160;11.530;2022-09-29T13:41:54;94474.63;;;10.61;100.00
55149;BME280;49539;48.160;11.530;2022-09-29T13:44:27;94482.06;;;10.51;100.00
55149;BME280;49539;48.160;11.530;2022-09-29T13:46:54;94487.94;;;10.40;100.00
55149;BME280;49539;48.160;11.530;2022-09-29T13:54:21;94488.69;;;10.32;100.00
55149;BME280;49539;48.160;11.530;2022-09-29T13:59:42;94494.25;;;10.19;100.00
55149;BME280;49539;48.160;11.530;2022-09-29T14:10:38;94501.06;;;10.24;100.00
55149;BME280;49539;48.160;11.530;2022-09-29T14:13:26;94497.09;;;10.06;100.00
55149;BME280;49539;48.160;11.530;2022-09-29T14:16:25;94508.31;;;10.08;100.00
55149;BME280;49539;48.160;11.530;2022-09-29T14:21:51;94511.03;;;10.08;100.00
55149;BME280;49539;48.160;11.530;2022-09-29T14:29:47;94516.28;;;10.03;100.00
55149;BME280;49539;48.160;11.530;2022-09-29T14:32:20;94522.00;;;9.95;100.00
55149;BME280;49539;48.160;11.530;2022-09-29T14:34:49;94527.63;;;9.92;100.00
55149;BME280;49539;48.160;11.530;2022-09-29T14:37:20;94526.41;;;10.02;100.00
55149;BME280;49539;48.160;11.530;2022-09-29T14:39:46;94534.28;;;10.00;100.00
55149;BME280;49539;48.160;11.530;2022-09-29T14:42:32;94532.63;;;10.03;100.00
55149;BME280;49539;48.160;11.530;2022-09-29T14:44:59;94538.94;;;10.00;100.00
55149;BME280;49539;48.160;11.530;2022-09-29T14:47:54;94547.41;;;9.92;100.00
55149;BME280;49539;48.160;11.530;2022-09-29T14:50:43;94547.56;;;9.89;100.00
55149;BME280;49539;48.160;11.530;2022-09-29T14:57:04;94550.56;;;9.91;100.00
55149;BME280;49539;48.160;11.530;2022-09-29T15:04:43;94545.25;;;9.87;100.00
55149;BME280;49539;48.160;11.530;2022-09-29T15:07:17;94556.72;;;9.82;100.00
55149;BME280;49539;48.160;11.530;2022-09-29T15:09:53;94562.31;;;9.79;100.00
55149;BME280;49539;48.160;11.530;2022-09-29T15:14:52;94563.16;;;9.66;100.00
55149;BME280;49539;48.160;11.530;2022-09-29T15:17:53;94569.94;;;9.62;100.00
55149;BME280;49539;48.160;11.530;2022-09-29T15:23:36;94577.47;;;9.58;100.00
55149;BME280;49539;48.160;11.530;2022-09-29T15:26:03;94573.97;;;9.48;100.00
55149;BME280;49539;48.160;11.530;2022-09-29T15:28:36;94568.03;;;9.40;100.00
55149;BME280;49539;48.160;11.530;2022-09-29T15:31:05;94566.44;;;9.52;100.00
55149;BME280;49539;48.160;11.530;2022-09-29T15:33:35;94567.63;;;9.51;100.00
55149;BME280;49539;48.160;11.530;2022-09-29T15:36:05;94575.66;;;9.55;100.00
55149;BME280;49539;48.160;11.530;2022-09-29T15:38:38;94570.53;;;9.57;100.00
55149;BME280;49539;48.160;11.530;2022-09-29T15:43:40;94576.09;;;9.53;100.00
55149;BME280;49539;48.160;11.530;2022-09-29T15:46:19;94582.28;;;9.54;100.00
55149;BME280;49539;48.160;11.530;2022-09-29T15:49:09;94576.81;;;9.44;100.00
55149;BME280;49539;48.160;11.530;2022-09-29T15:51:35;94581.63;;;9.40;100.00
55149;BME280;49539;48.160;11.530;2022-09-29T15:54:02;94578.59;;;9.38;100.00